Time;durP1;ratioP1;P1;durP2;ratioP2;P2;SDS_P1;SDS_P2;PMS_P1;PMS_P2;Temp;Humidity;BMP_temperature;BMP_pressure;BME280_temperature;BME280_humidity;BME280_pressure;Samples;Min_cycle;Max_cycle;Signal;HPM_P1;HPM_P2
2022/11/24 00:01:54;;;;;;;0.30;0.20;;;25.50;99.90;;;;;;5027498;28;20224;-72
2022/11/24 00:04:25;;;;;;;0.45;0.30;;;25.40;99.90;;;;;;5031674;28;20198;-77
2022/11/24 00:06:56;;;;;;;1.15;0.30;;;25.40;99.90;;;;;;5029718;28;20202;-72
2022/11/24 00:09:28;;;;;;;1.20;0.35;;;25.70;99.90;;;;;;5029914;28;20196;-72
2022/11/24 00:12:00;;;;;;;0.45;0.20;;;25.70;99.90;;;;;;5029772;28;20692;-72
2022/11/24 00:14:33;;;;;;;0.20;0.20;;;25.70;99.90;;;;;;5031149;28;20248;-72
2022/11/24 00:17:04;;;;;;;0.52;0.15;;;25.90;99.90;;;;;;5027665;28;20224;-71
2022/11/24 00:19:35;;;;;;;2.05;0.20;;;26.10;99.90;;;;;;5021734;28;20206;-71
2022/11/24 00:22:06;;;;;;;1.55;0.30;;;26.20;99.90;;;;;;5021972;28;20217;-71
2022/11/24 00:24:39;;;;;;;0.65;0.10;;;26.40;99.90;;;;;;5026456;28;20240;-72
2022/11/24 00:27:10;;;;;;;0.98;0.55;;;26.40;99.90;;;;;;5030759;28;20243;-73
2022/11/24 00:29:41;;;;;;;1.65;0.30;;;26.20;99.90;;;;;;5025962;28;20202;-72
2022/11/24 00:32:12;;;;;;;2.00;0.80;;;26.40;99.90;;;;;;5028363;28;20675;-72
2022/11/24 00:34:43;;;;;;;0.93;0.20;;;26.30;99.90;;;;;;5028422;28;20240;-72
2022/11/24 00:37:14;;;;;;;0.65;0.20;;;26.30;99.90;;;;;;5030994;28;20237;-72
2022/11/24 00:39:47;;;;;;;0.65;0.17;;;26.40;99.90;;;;;;5029594;28;20190;-71
2022/11/24 00:42:18;;;;;;;0.10;0.10;;;26.50;99.90;;;;;;5032667;28;20858;-73
2022/11/24 00:44:48;;;;;;;2.25;0.40;;;26.70;99.90;;;;;;5032433;28;20195;-72
2022/11/24 00:47:19;;;;;;;0.10;0.10;;;26.70;99.90;;;;;;5034664;28;20202;-72
2022/11/24 00:49:50;;;;;;;0.38;0.20;;;26.50;99.90;;;;;;5028610;28;20226;-73
2022/11/24 00:52:21;;;;;;;1.17;0.28;;;26.60;99.90;;;;;;5029868;28;20560;-71
2022/11/24 00:54:54;;;;;;;1.35;0.20;;;26.80;99.90;;;;;;5038012;28;20209;-73
2022/11/24 00:57:25;;;;;;;0.50;0.20;;;26.50;99.90;;;;;;5035950;28;20214;-72
2022/11/24 00:59:55;;;;;;;2.05;0.30;;;26.40;99.90;;;;;;5030089;28;20198;-71
2022/11/24 01:02:26;;;;;;;3.05;0.32;;;25.90;99.90;;;;;;5035708;28;20588;-72
2022/11/24 01:04:57;;;;;;;3.35;0.52;;;25.80;99.90;;;;;;5027811;28;20221;-71
2022/11/24 01:07:27;;;;;;;1.55;0.50;;;25.70;99.90;;;;;;5027118;28;20573;-71
2022/11/24 01:10:01;;;;;;;0.98;0.50;;;25.60;99.90;;;;;;5027922;28;20202;-73
2022/11/24 01:12:31;;;;;;;2.00;0.47;;;25.50;99.90;;;;;;5038246;28;20199;-72
2022/11/24 01:15:03;;;;;;;1.80;0.40;;;25.30;99.90;;;;;;5030401;28;20198;-73
2022/11/24 01:17:34;;;;;;;1.25;0.30;;;25.40;99.90;;;;;;5038183;28;20222;-72
2022/11/24 01:20:04;;;;;;;1.40;0.50;;;25.60;99.90;;;;;;5036446;28;20293;-75
2022/11/24 01:22:37;;;;;;;0.95;0.30;;;25.60;99.90;;;;;;5034567;28;20206;-72
2022/11/24 01:25:10;;;;;;;3.33;0.88;;;25.50;99.90;;;;;;5036309;28;20282;-72
2022/11/24 01:27:41;;;;;;;1.13;0.22;;;25.00;99.90;;;;;;5037483;28;20205;-76
2022/11/24 01:30:13;;;;;;;4.68;0.70;;;25.10;99.90;;;;;;5034896;28;20209;-78
2022/11/24 01:32:43;;;;;;;4.00;0.70;;;25.20;99.90;;;;;;5029929;28;20681;-79
2022/11/24 01:35:15;;;;;;;1.15;0.50;;;25.30;99.90;;;;;;5047244;22;20244;-76
2022/11/24 01:37:45;;;;;;;0.28;0.28;;;25.40;99.90;;;;;;5017997;28;20222;-77
2022/11/24 01:40:18;;;;;;;2.97;1.70;;;25.30;99.90;;;;;;5021035;28;20205;-75
2022/11/24 01:42:52;;;;;;;8.05;1.90;;;25.20;99.90;;;;;;5026463;28;20198;-75
2022/11/24 01:45:42;;;;;;;5.65;1.88;;;24.90;99.90;;;;;;5024401;28;20209;-74
2022/11/24 01:48:19;;;;;;;3.58;2.00;;;25.00;99.90;;;;;;5022984;28;20202;-74
2022/11/24 01:50:55;;;;;;;3.35;1.80;;;24.80;99.90;;;;;;5024507;28;20198;-74
2022/11/24 01:53:27;;;;;;;4.28;1.80;;;24.80;99.90;;;;;;5024407;28;20582;-73
2022/11/24 01:56:01;;;;;;;4.13;1.40;;;25.00;99.90;;;;;;5026233;28;20198;-75
2022/11/24 01:58:34;;;;;;;2.78;1.20;;;25.20;99.90;;;;;;5034759;28;20277;-75
2022/11/24 02:01:05;;;;;;;6.68;1.10;;;25.50;99.90;;;;;;5024419;28;20198;-74
2022/11/24 02:03:39;;;;;;;2.58;0.90;;;25.70;99.90;;;;;;5024641;28;20202;-73
2022/11/24 02:06:13;;;;;;;2.05;0.85;;;26.00;99.90;;;;;;5036399;28;20694;-76
2022/11/24 02:08:50;;;;;;;4.28;1.10;;;26.20;99.90;;;;;;5038596;28;20696;-79
2022/11/24 02:11:25;;;;;;;2.92;0.95;;;26.30;99.90;;;;;;5031348;28;20524;-74
2022/11/24 02:13:57;;;;;;;1.33;0.75;;;26.50;99.90;;;;;;5028077;28;20691;-77
2022/11/24 02:16:28;;;;;;;2.45;0.70;;;26.40;99.90;;;;;;5026648;28;20229;-73
2022/11/24 02:18:59;;;;;;;1.77;0.80;;;26.10;99.90;;;;;;5032932;28;20291;-76
2022/11/24 02:21:30;;;;;;;2.95;0.80;;;26.20;99.90;;;;;;5030917;28;20195;-79
2022/11/24 02:24:08;;;;;;;2.67;0.80;;;25.90;99.90;;;;;;5033018;28;20198;-77
2022/11/24 02:26:47;;;;;;;1.38;0.82;;;25.90;99.90;;;;;;5031986;28;20204;-78
2022/11/24 02:29:18;;;;;;;1.67;0.73;;;25.90;99.90;;;;;;5027542;28;20198;-75
2022/11/24 02:31:53;;;;;;;1.13;0.68;;;25.90;99.90;;;;;;5031740;28;20237;-74
2022/11/24 02:34:24;;;;;;;2.97;0.70;;;26.00;99.90;;;;;;5025443;28;20257;-76
2022/11/24 02:36:55;;;;;;;1.98;0.65;;;26.10;99.90;;;;;;5029285;28;20253;-75
2022/11/24 02:39:26;;;;;;;1.60;0.70;;;26.10;99.90;;;;;;5031240;28;20199;-80
2022/11/24 02:42:03;;;;;;;1.42;0.57;;;26.10;99.90;;;;;;5024793;28;20289;-78
2022/11/24 02:44:38;;;;;;;1.52;0.43;;;26.00;99.90;;;;;;5027072;28;20200;-78
2022/11/24 02:47:11;;;;;;;4.05;0.70;;;26.10;99.90;;;;;;5029291;28;20205;-76
2022/11/24 02:49:42;;;;;;;2.47;0.60;;;26.10;99.90;;;;;;5025589;28;20205;-78
2022/11/24 02:52:13;;;;;;;1.05;0.52;;;25.80;99.90;;;;;;5029288;28;20198;-76
2022/11/24 02:54:44;;;;;;;2.70;0.57;;;25.70;99.90;;;;;;5030428;28;20198;-77
2022/11/24 02:57:18;;;;;;;1.52;0.50;;;25.50;99.90;;;;;;5032269;28;20222;-75
2022/11/24 02:59:49;;;;;;;2.85;0.70;;;25.40;99.90;;;;;;5026241;28;20198;-81
2022/11/24 03:02:20;;;;;;;1.58;0.50;;;25.40;99.90;;;;;;5024796;28;20206;-74
2022/11/24 03:04:50;;;;;;;2.15;0.60;;;25.30;99.90;;;;;;5027413;28;20198;-75
2022/11/24 03:07:21;;;;;;;2.15;0.70;;;25.30;99.90;;;;;;5027359;28;20661;-79
2022/11/24 03:09:52;;;;;;;2.15;0.60;;;25.40;99.90;;;;;;5029657;28;20282;-72
2022/11/24 03:12:25;;;;;;;3.75;0.63;;;25.40;99.90;;;;;;5029884;28;20203;-74
2022/11/24 03:14:56;;;;;;;3.63;0.85;;;25.40;99.90;;;;;;5033477;28;20191;-75
2022/11/24 03:17:28;;;;;;;1.77;0.45;;;25.50;99.90;;;;;;5034503;28;20218;-87
2022/11/24 03:20:01;;;;;;;1.48;0.60;;;25.50;99.90;;;;;;5033839;28;20194;-75
2022/11/24 03:22:31;;;;;;;1.50;0.40;;;25.40;99.90;;;;;;5028686;28;20341;-75
2022/11/24 03:25:02;;;;;;;4.00;0.80;;;25.30;99.90;;;;;;5030346;28;20198;-81
2022/11/24 03:27:35;;;;;;;2.90;0.80;;;25.30;99.90;;;;;;5026841;28;20230;-77
2022/11/24 03:30:07;;;;;;;2.00;0.70;;;25.40;99.90;;;;;;5020052;28;20202;-76
2022/11/24 03:32:38;;;;;;;3.50;0.50;;;25.40;99.90;;;;;;5023099;28;20277;-80
2022/11/24 03:35:09;;;;;;;1.13;0.50;;;25.40;99.90;;;;;;5025425;28;20233;-74
2022/11/24 03:37:40;;;;;;;2.58;0.60;;;25.40;99.90;;;;;;5025993;28;20811;-79
2022/11/24 03:40:12;;;;;;;1.90;0.50;;;25.20;99.90;;;;;;5029765;28;20198;-79
2022/11/24 03:42:46;;;;;;;2.60;0.50;;;25.20;99.90;;;;;;5027016;28;20190;-76
2022/11/24 03:45:18;;;;;;;1.52;0.52;;;25.00;99.90;;;;;;5028997;28;20193;-78
2022/11/24 03:47:52;;;;;;;1.65;0.40;;;24.80;99.90;;;;;;5029506;28;20252;-85
2022/11/24 03:50:23;;;;;;;1.05;0.50;;;25.00;99.90;;;;;;5027255;28;20205;-76
2022/11/24 03:52:55;;;;;;;3.75;0.55;;;25.00;99.90;;;;;;5025283;28;20198;-77
2022/11/24 03:55:26;;;;;;;2.28;0.40;;;24.90;99.90;;;;;;5010094;28;20286;-75
2022/11/24 03:58:01;;;;;;;3.00;0.40;;;25.00;99.90;;;;;;5019871;28;20218;-87
2022/11/24 04:00:32;;;;;;;1.55;0.40;;;24.80;99.90;;;;;;5029336;28;20194;-77
2022/11/24 04:03:04;;;;;;;3.72;0.65;;;24.90;99.90;;;;;;5029581;28;20214;-74
2022/11/24 04:05:35;;;;;;;2.53;0.40;;;24.90;99.90;;;;;;5022046;28;20209;-81
2022/11/24 04:08:06;;;;;;;1.00;0.52;;;24.80;99.90;;;;;;5021924;28;20544;-76
2022/11/24 04:10:38;;;;;;;2.30;0.68;;;24.90;99.90;;;;;;5028102;28;20196;-86
2022/11/24 04:13:13;;;;;;;1.38;0.55;;;24.80;99.90;;;;;;5031904;28;20201;-75
2022/11/24 04:15:45;;;;;;;2.17;0.40;;;24.80;99.90;;;;;;5028935;28;20236;-83
2022/11/24 04:18:17;;;;;;;2.70;0.50;;;24.80;99.90;;;;;;5028069;28;20578;-86
2022/11/24 04:20:51;;;;;;;1.23;0.40;;;24.80;99.90;;;;;;5025970;28;20206;-75
2022/11/24 04:23:24;;;;;;;1.73;0.50;;;24.60;99.90;;;;;;5008578;28;20690;-83
2022/11/24 04:26:08;;;;;;;1.55;0.57;;;24.60;99.90;;;;;;5025958;28;20687;-75
2022/11/24 04:28:44;;;;;;;1.00;0.47;;;24.60;99.90;;;;;;5024198;28;20220;-75
2022/11/24 04:31:15;;;;;;;3.25;0.60;;;24.50;99.90;;;;;;5024225;28;20200;-76
2022/11/24 04:33:46;;;;;;;1.08;0.32;;;24.60;99.90;;;;;;5023038;28;20209;-78
2022/11/24 04:36:18;;;;;;;3.03;0.68;;;24.40;99.90;;;;;;5024887;28;20340;-85
2022/11/24 04:38:49;;;;;;;1.17;0.50;;;24.20;99.90;;;;;;5027648;28;20218;-84
2022/11/24 04:41:20;;;;;;;3.17;0.60;;;24.20;99.90;;;;;;5032011;28;20206;-77
2022/11/24 04:43:55;;;;;;;1.58;0.57;;;24.30;99.90;;;;;;5023190;28;20641;-75
2022/11/24 04:46:26;;;;;;;2.10;0.50;;;24.40;99.90;;;;;;5033142;28;20205;-83
2022/11/24 04:48:57;;;;;;;2.47;0.60;;;24.20;99.90;;;;;;5027102;28;20206;-77
2022/11/24 04:51:28;;;;;;;1.15;0.40;;;24.30;99.90;;;;;;5027440;28;20292;-78
2022/11/24 04:53:59;;;;;;;1.48;0.40;;;24.30;99.90;;;;;;5028353;28;20194;-78
2022/11/24 04:56:31;;;;;;;1.40;0.30;;;24.30;99.90;;;;;;5027490;28;20289;-75
2022/11/24 04:59:05;;;;;;;1.70;0.50;;;24.20;99.90;;;;;;5028398;28;20252;-81
2022/11/24 05:01:37;;;;;;;1.92;0.50;;;24.00;99.90;;;;;;5031307;28;20197;-82
2022/11/24 05:04:08;;;;;;;1.40;0.60;;;24.10;99.90;;;;;;5026574;28;20567;-78
2022/11/24 05:06:40;;;;;;;2.83;0.65;;;24.10;99.90;;;;;;5023697;28;20657;-80
2022/11/24 05:09:16;;;;;;;2.30;0.40;;;24.20;99.90;;;;;;5020304;28;20232;-79
2022/11/24 05:11:47;;;;;;;3.03;0.70;;;24.10;99.90;;;;;;5028517;28;20193;-79
2022/11/24 05:14:21;;;;;;;2.78;0.60;;;23.90;99.90;;;;;;5026147;28;20230;-82
2022/11/24 05:16:53;;;;;;;1.45;0.50;;;23.70;99.90;;;;;;5022106;28;20197;-80
2022/11/24 05:19:24;;;;;;;5.03;0.50;;;23.60;99.90;;;;;;5026749;28;20281;-77
2022/11/24 05:21:55;;;;;;;5.20;0.85;;;23.70;99.90;;;;;;5027258;28;20277;-79
2022/11/24 05:24:27;;;;;;;2.65;0.60;;;23.60;99.90;;;;;;5024987;28;20285;-80
2022/11/24 05:26:58;;;;;;;3.55;0.68;;;23.60;99.90;;;;;;5022613;28;20194;-80
2022/11/24 05:29:32;;;;;;;2.30;0.60;;;23.60;99.90;;;;;;5023293;28;20199;-77
2022/11/24 05:32:03;;;;;;;3.58;0.60;;;23.60;99.90;;;;;;5027289;28;20204;-81
2022/11/24 05:34:34;;;;;;;2.33;0.60;;;23.60;99.90;;;;;;5032237;28;20304;-81
2022/11/24 05:37:05;;;;;;;3.28;0.65;;;23.60;99.90;;;;;;5030596;28;20202;-79
2022/11/24 05:39:37;;;;;;;3.83;0.80;;;23.70;99.90;;;;;;5033157;28;20194;-79
2022/11/24 05:44:56;;;;;;;5.43;0.65;;;23.40;99.90;;;;;;5029862;28;20289;-76
2022/11/24 05:47:27;;;;;;;1.85;0.47;;;23.30;99.90;;;;;;5033094;28;20209;-80
2022/11/24 05:49:58;;;;;;;3.95;0.73;;;23.20;99.90;;;;;;5034099;28;21096;-80
2022/11/24 05:52:30;;;;;;;4.47;0.70;;;23.20;99.90;;;;;;5033705;28;20282;-80
2022/11/24 05:55:00;;;;;;;2.92;0.82;;;23.30;99.90;;;;;;5028098;28;20630;-79
2022/11/24 05:57:32;;;;;;;3.70;0.80;;;23.40;99.90;;;;;;5031639;28;20305;-83
2022/11/24 06:00:08;;;;;;;3.35;0.85;;;23.10;99.90;;;;;;5027668;28;20202;-78
2022/11/24 06:02:41;;;;;;;3.83;1.00;;;23.00;99.90;;;;;;5033076;28;20201;-78
2022/11/24 06:05:12;;;;;;;2.58;0.75;;;23.00;99.90;;;;;;5034374;28;20194;-83
2022/11/24 06:07:43;;;;;;;4.90;0.98;;;23.10;99.90;;;;;;5031833;28;20204;-76
2022/11/24 06:10:14;;;;;;;3.38;0.70;;;23.10;99.90;;;;;;5025153;28;20278;-76
2022/11/24 06:12:45;;;;;;;3.50;0.80;;;23.20;99.90;;;;;;5031115;28;20559;-78
2022/11/24 06:15:21;;;;;;;3.28;0.68;;;23.00;99.90;;;;;;5027911;28;20198;-76
2022/11/24 06:17:57;;;;;;;4.20;1.00;;;22.90;99.90;;;;;;5029860;28;20218;-76
2022/11/24 06:20:28;;;;;;;3.45;1.00;;;22.80;99.90;;;;;;5020369;28;20213;-75
2022/11/24 06:23:02;;;;;;;3.58;0.80;;;22.50;99.90;;;;;;5031321;28;20194;-76
2022/11/24 06:25:33;;;;;;;2.65;0.70;;;22.50;99.90;;;;;;5027057;28;20277;-77
2022/11/24 06:28:07;;;;;;;2.80;0.80;;;22.50;99.90;;;;;;5028678;28;20198;-77
2022/11/24 06:30:40;;;;;;;3.70;0.63;;;22.50;99.90;;;;;;5029072;28;20208;-76
2022/11/24 06:33:11;;;;;;;3.58;0.90;;;22.50;99.90;;;;;;5033112;28;20232;-79
2022/11/24 06:35:42;;;;;;;4.00;0.80;;;22.60;99.90;;;;;;5040620;28;20272;-77
2022/11/24 06:38:13;;;;;;;5.22;0.82;;;22.50;99.90;;;;;;5031183;28;20263;-76
2022/11/24 06:40:44;;;;;;;4.13;0.90;;;22.40;99.90;;;;;;5030614;28;20307;-77
2022/11/24 06:43:15;;;;;;;3.20;0.77;;;22.40;99.90;;;;;;5028636;28;20264;-76
2022/11/24 06:45:54;;;;;;;5.43;0.82;;;22.40;99.90;;;;;;5024708;28;20190;-75
2022/11/24 06:48:25;;;;;;;3.60;1.00;;;22.30;99.90;;;;;;5032238;28;20198;-76
2022/11/24 06:51:00;;;;;;;2.90;0.70;;;22.20;99.90;;;;;;5030641;28;20201;-75
2022/11/24 06:53:36;;;;;;;5.57;1.00;;;22.30;99.90;;;;;;5025728;28;20566;-75
2022/11/24 06:56:08;;;;;;;4.53;0.88;;;22.20;99.90;;;;;;5024186;28;20285;-74
2022/11/24 06:58:42;;;;;;;6.43;0.95;;;22.10;99.90;;;;;;5030768;28;20214;-74
2022/11/24 07:01:17;;;;;;;6.72;1.10;;;22.00;99.90;;;;;;5029229;28;20200;-76
2022/11/24 07:03:48;;;;;;;4.40;1.05;;;21.90;99.90;;;;;;5027011;28;20201;-75
2022/11/24 07:06:20;;;;;;;4.05;0.95;;;22.00;99.90;;;;;;5028804;28;20317;-76
2022/11/24 07:08:51;;;;;;;4.80;0.90;;;22.00;99.90;;;;;;5026851;28;20574;-77
2022/11/24 07:11:24;;;;;;;4.35;0.95;;;22.00;99.90;;;;;;5029050;28;20209;-76
2022/11/24 07:13:55;;;;;;;4.57;0.93;;;22.00;99.90;;;;;;5034073;28;20305;-76
2022/11/24 07:16:29;;;;;;;5.30;1.17;;;21.90;99.90;;;;;;5025434;28;20205;-75
2022/11/24 07:19:00;;;;;;;3.90;0.85;;;21.80;99.90;;;;;;5028855;28;20229;-75
2022/11/24 07:21:31;;;;;;;7.40;1.02;;;21.70;99.90;;;;;;5033236;28;20202;-76
2022/11/24 07:24:02;;;;;;;5.05;1.10;;;21.50;99.90;;;;;;5032299;28;20211;-77
2022/11/24 07:26:36;;;;;;;5.22;0.95;;;21.40;99.90;;;;;;5031572;28;20194;-76
2022/11/24 07:29:07;;;;;;;5.47;1.17;;;21.30;99.90;;;;;;5030623;28;20685;-76
2022/11/24 07:31:41;;;;;;;4.40;0.93;;;21.30;99.90;;;;;;5022871;28;20199;-76
2022/11/24 07:34:13;;;;;;;7.32;1.00;;;21.20;99.90;;;;;;5028312;28;20198;-79
2022/11/24 07:36:44;;;;;;;5.40;1.17;;;21.20;99.90;;;;;;5027761;28;20236;-76
2022/11/24 07:39:15;;;;;;;5.22;0.98;;;21.20;99.90;;;;;;5022868;28;20210;-74
2022/11/24 07:41:45;;;;;;;5.00;1.10;;;21.20;99.90;;;;;;5026758;28;20194;-82
2022/11/24 07:44:16;;;;;;;6.25;1.20;;;21.10;99.90;;;;;;5027644;28;20305;-76
2022/11/24 07:46:50;;;;;;;5.35;0.98;;;21.00;99.90;;;;;;5027704;28;20190;-77
2022/11/24 07:49:21;;;;;;;5.15;1.05;;;20.80;99.90;;;;;;5028584;28;20198;-76
2022/11/24 07:51:53;;;;;;;7.40;1.35;;;20.70;99.90;;;;;;5026467;28;20195;-76
2022/11/24 07:54:24;;;;;;;3.10;1.00;;;20.70;99.90;;;;;;5027688;28;20198;-86
2022/11/24 07:56:56;;;;;;;5.40;1.17;;;20.60;99.90;;;;;;5025624;28;20381;-76
2022/11/24 07:59:27;;;;;;;6.68;1.00;;;20.50;99.90;;;;;;5027029;28;20301;-83
2022/11/24 08:02:01;;;;;;;7.40;1.25;;;20.50;99.90;;;;;;5026244;28;20660;-81
2022/11/24 08:04:34;;;;;;;5.68;1.15;;;20.40;99.90;;;;;;5023921;28;20284;-79
2022/11/24 08:07:06;;;;;;;5.05;1.13;;;20.40;99.90;;;;;;5030724;28;20206;-78
2022/11/24 08:09:37;;;;;;;4.82;0.90;;;20.40;99.90;;;;;;5029583;28;20721;-81
2022/11/24 08:12:09;;;;;;;6.38;1.10;;;20.40;99.90;;;;;;5026780;28;20292;-80
2022/11/24 08:14:40;;;;;;;5.63;1.15;;;20.40;99.90;;;;;;5026962;28;20285;-76
2022/11/24 08:17:14;;;;;;;7.20;1.20;;;20.40;99.90;;;;;;5024040;28;20197;-78
2022/11/24 08:19:45;;;;;;;6.15;1.42;;;20.40;99.90;;;;;;5028092;28;20213;-80
2022/11/24 08:22:16;;;;;;;4.18;0.98;;;20.40;99.90;;;;;;5029062;28;20206;-82
2022/11/24 08:24:48;;;;;;;3.80;1.13;;;20.30;99.90;;;;;;5031411;28;20194;-83
2022/11/24 08:27:20;;;;;;;9.25;1.50;;;20.20;99.90;;;;;;5027434;28;20199;-82
2022/11/24 08:29:51;;;;;;;9.38;1.58;;;20.20;99.90;;;;;;5029165;28;20208;-78
2022/11/24 08:32:26;;;;;;;8.23;1.48;;;20.10;99.90;;;;;;5031114;28;20628;-83
2022/11/24 08:34:58;;;;;;;5.22;1.23;;;20.10;99.90;;;;;;5021443;28;20301;-83
2022/11/24 08:37:31;;;;;;;6.07;1.27;;;20.10;99.90;;;;;;5013943;28;20244;-80
2022/11/24 08:40:02;;;;;;;6.53;1.50;;;20.00;99.90;;;;;;5030096;28;20307;-84
2022/11/24 08:42:33;;;;;;;10.95;1.63;;;20.00;99.90;;;;;;5026240;28;20249;-87
2022/11/24 08:45:06;;;;;;;9.73;1.65;;;19.90;99.90;;;;;;5031327;28;20206;-77
2022/11/24 08:47:44;;;;;;;9.55;1.20;;;19.90;99.90;;;;;;5027461;28;20283;-76
2022/11/24 08:50:17;;;;;;;6.10;1.33;;;19.80;99.90;;;;;;5029244;28;21954;-82
2022/11/24 08:52:48;;;;;;;5.07;1.50;;;19.80;99.90;;;;;;5028663;28;20211;-83
2022/11/24 08:55:20;;;;;;;8.88;1.67;;;19.80;99.90;;;;;;5030977;28;20919;-76
2022/11/24 08:57:53;;;;;;;7.13;1.30;;;19.70;99.90;;;;;;5026709;28;20256;-75
2022/11/24 09:00:24;;;;;;;6.90;1.40;;;19.70;99.90;;;;;;5024233;28;20695;-80
2022/11/24 09:03:03;;;;;;;8.07;1.60;;;19.70;99.90;;;;;;5024550;28;20191;-81
2022/11/24 09:05:35;;;;;;;9.07;1.40;;;19.70;99.90;;;;;;5019239;28;20307;-79
2022/11/24 09:08:07;;;;;;;6.47;1.20;;;19.70;99.90;;;;;;5027267;28;20244;-76
2022/11/24 09:10:39;;;;;;;7.75;1.27;;;19.60;99.90;;;;;;5027653;28;20198;-75
2022/11/24 09:13:10;;;;;;;10.70;1.40;;;19.60;99.90;;;;;;5024520;28;20232;-77
2022/11/24 09:15:42;;;;;;;5.70;1.58;;;19.60;99.90;;;;;;5027827;28;20224;-76
2022/11/24 09:18:16;;;;;;;8.38;1.70;;;19.60;99.90;;;;;;5028687;28;20191;-78
2022/11/24 09:20:48;;;;;;;8.90;1.63;;;19.60;99.90;;;;;;5027811;28;20323;-76
2022/11/24 09:23:19;;;;;;;5.97;1.58;;;19.50;99.90;;;;;;5026771;28;20332;-76
2022/11/24 09:25:50;;;;;;;7.28;1.45;;;19.50;99.90;;;;;;5021468;28;20559;-75
2022/11/24 09:28:22;;;;;;;6.90;1.58;;;19.50;99.90;;;;;;5028388;28;20235;-75
2022/11/24 09:30:53;;;;;;;7.32;1.70;;;19.50;99.90;;;;;;5027147;28;20636;-76
2022/11/24 09:33:27;;;;;;;6.60;1.40;;;19.50;99.90;;;;;;5030849;28;20233;-75
2022/11/24 09:35:59;;;;;;;7.20;1.58;;;19.40;99.90;;;;;;5022689;28;20238;-76
2022/11/24 09:38:32;;;;;;;12.02;1.73;;;19.40;99.90;;;;;;5029414;28;20190;-76
2022/11/24 09:41:29;;;;;;;6.15;1.50;;;19.40;99.90;;;;;;5032696;28;20206;-77
2022/11/24 09:44:07;;;;;;;7.82;1.20;;;19.40;99.90;;;;;;5026612;28;20202;-76
2022/11/24 09:46:50;;;;;;;6.60;1.60;;;19.40;99.90;;;;;;5029289;28;20705;-76
2022/11/24 09:49:31;;;;;;;8.30;1.65;;;19.40;99.90;;;;;;5025322;28;20198;-76
2022/11/24 09:52:07;;;;;;;5.45;1.50;;;19.40;99.90;;;;;;5027225;28;20606;-77
2022/11/24 09:54:43;;;;;;;6.15;1.30;;;19.40;99.90;;;;;;5030176;28;20664;-76
2022/11/24 09:57:16;;;;;;;7.45;1.33;;;19.40;99.90;;;;;;5030497;28;20201;-76
2022/11/24 09:59:48;;;;;;;8.35;1.30;;;19.30;99.90;;;;;;5031239;28;20301;-75
2022/11/24 10:02:19;;;;;;;7.93;1.35;;;19.30;99.90;;;;;;5028814;28;20599;-76
2022/11/24 10:04:55;;;;;;;7.25;1.30;;;19.30;99.90;;;;;;5028073;28;20256;-76
2022/11/24 10:07:32;;;;;;;7.68;1.30;;;19.30;99.90;;;;;;5028154;28;20559;-77
2022/11/24 10:10:06;;;;;;;8.68;1.50;;;19.30;99.90;;;;;;5028833;28;20206;-77
2022/11/24 10:12:55;;;;;;;7.80;1.30;;;19.30;99.90;;;;;;5028830;28;20203;-77
2022/11/24 10:15:37;;;;;;;14.63;1.60;;;19.40;99.90;;;;;;5031918;28;20206;-76
2022/11/24 10:18:28;;;;;;;10.15;1.33;;;19.40;99.90;;;;;;5027969;28;20198;-74
2022/11/24 10:21:16;;;;;;;9.25;1.40;;;19.40;99.90;;;;;;5029463;28;20252;-75
2022/11/24 10:24:06;;;;;;;6.85;1.40;;;19.40;99.90;;;;;;5029144;28;20205;-75
2022/11/24 10:26:39;;;;;;;7.78;1.52;;;19.40;99.90;;;;;;5032912;28;20198;-74
2022/11/24 10:29:22;;;;;;;8.15;1.50;;;19.40;99.90;;;;;;5025608;28;20194;-77
2022/11/24 10:31:56;;;;;;;9.10;1.30;;;19.40;99.90;;;;;;5028117;28;20206;-74
2022/11/24 10:34:34;;;;;;;8.40;1.75;;;19.40;99.90;;;;;;5019827;28;20671;-74
2022/11/24 10:37:16;;;;;;;9.75;1.60;;;19.40;99.90;;;;;;5029070;28;20233;-75
2022/11/24 10:39:56;;;;;;;6.30;1.30;;;19.50;99.90;;;;;;5028771;28;20242;-75
2022/11/24 10:42:30;;;;;;;8.68;1.50;;;19.40;99.90;;;;;;5030487;28;20280;-76
2022/11/24 10:45:06;;;;;;;8.30;1.80;;;19.50;99.90;;;;;;5030883;28;20198;-78
2022/11/24 10:47:37;;;;;;;8.23;1.55;;;19.40;99.90;;;;;;5031262;28;20732;-75
2022/11/24 10:50:17;;;;;;;13.43;1.38;;;19.40;99.90;;;;;;5026059;28;20278;-74
2022/11/24 10:52:58;;;;;;;6.65;1.52;;;19.40;99.90;;;;;;5029291;28;20587;-75
2022/11/24 10:55:49;;;;;;;6.45;1.23;;;19.40;99.90;;;;;;5022709;28;20340;-74
2022/11/24 10:58:24;;;;;;;7.38;1.42;;;19.40;99.90;;;;;;5028971;28;20198;-75
2022/11/24 11:00:57;;;;;;;7.97;1.35;;;19.30;99.90;;;;;;5029004;28;20221;-74
2022/11/24 11:03:29;;;;;;;7.05;1.35;;;19.30;99.90;;;;;;5023957;28;20201;-74
2022/11/24 11:06:05;;;;;;;5.45;1.17;;;19.30;99.90;;;;;;5030833;28;20194;-74
2022/11/24 11:08:40;;;;;;;6.38;1.25;;;19.30;99.90;;;;;;5032416;28;20206;-75
2022/11/24 11:11:29;;;;;;;11.98;1.50;;;19.30;99.90;;;;;;5019845;28;20208;-75
2022/11/24 11:14:01;;;;;;;5.88;1.10;;;19.30;99.90;;;;;;5028999;28;20594;-76
2022/11/24 11:16:44;;;;;;;7.55;1.52;;;19.30;99.90;;;;;;5030899;28;20202;-77
2022/11/24 11:19:34;;;;;;;6.45;1.35;;;19.30;99.90;;;;;;5031198;28;20764;-75
2022/11/24 11:22:08;;;;;;;8.32;1.42;;;19.30;99.90;;;;;;5022225;28;20221;-75
2022/11/24 11:24:44;;;;;;;7.30;1.30;;;19.30;99.90;;;;;;5031730;28;20277;-75
2022/11/24 11:27:22;;;;;;;7.53;1.40;;;19.30;99.90;;;;;;5032182;28;20200;-74
2022/11/24 11:29:53;;;;;;;6.78;1.10;;;19.30;99.90;;;;;;5027071;28;20202;-75
2022/11/24 11:32:26;;;;;;;4.95;1.13;;;19.30;99.90;;;;;;5030655;28;20281;-74
2022/11/24 11:34:59;;;;;;;7.40;1.92;;;19.30;99.90;;;;;;5022995;28;20313;-75
2022/11/24 11:37:34;;;;;;;6.38;1.00;;;19.30;99.90;;;;;;5020483;28;20210;-75
2022/11/24 11:40:15;;;;;;;6.70;1.25;;;19.30;99.90;;;;;;5029935;28;20228;-74
2022/11/24 11:42:49;;;;;;;5.70;1.13;;;19.30;99.90;;;;;;5027154;28;20198;-74
2022/11/24 11:45:25;;;;;;;7.47;1.33;;;19.40;99.90;;;;;;5033971;28;20212;-76
2022/11/24 11:47:59;;;;;;;5.18;1.30;;;19.40;99.90;;;;;;5027551;28;20281;-73
2022/11/24 11:50:37;;;;;;;10.35;1.15;;;19.40;99.90;;;;;;5023449;28;20194;-74
2022/11/24 11:53:14;;;;;;;5.22;1.27;;;19.40;99.90;;;;;;5024733;28;20213;-74
2022/11/24 11:56:12;;;;;;;9.00;1.63;;;19.40;99.90;;;;;;5019683;28;20286;-79
2022/11/24 11:59:21;;;;;;;8.88;1.50;;;19.40;99.90;;;;;;5025450;28;20206;-77
2022/11/24 12:02:24;;;;;;;7.50;1.40;;;19.40;99.90;;;;;;5029329;28;20222;-77
2022/11/24 12:05:00;;;;;;;6.65;1.23;;;19.40;99.90;;;;;;5033396;28;20201;-83
2022/11/24 12:07:47;;;;;;;6.63;1.08;;;19.40;99.90;;;;;;5027524;28;20197;-78
2022/11/24 12:10:30;;;;;;;5.93;1.33;;;19.40;99.90;;;;;;5025157;28;20190;-81
2022/11/24 12:13:32;;;;;;;5.97;1.33;;;19.40;99.90;;;;;;5041258;28;20198;-79
2022/11/24 12:16:14;;;;;;;7.32;1.20;;;19.30;99.90;;;;;;5024916;28;20565;-77
2022/11/24 12:18:52;;;;;;;5.75;1.10;;;19.30;99.90;;;;;;5037820;28;20202;-76
2022/11/24 12:21:30;;;;;;;9.52;1.20;;;19.30;99.90;;;;;;5032662;28;20237;-77
2022/11/24 12:24:11;;;;;;;5.20;1.20;;;19.20;99.90;;;;;;5026103;28;20692;-76
2022/11/24 12:26:50;;;;;;;6.35;1.30;;;19.20;99.90;;;;;;5025762;28;20204;-84
2022/11/24 12:29:52;;;;;;;6.30;1.33;;;19.20;99.90;;;;;;5031478;28;20190;-76
2022/11/24 12:32:40;;;;;;;6.30;1.00;;;19.20;99.90;;;;;;5019720;28;20566;-76
2022/11/24 12:35:21;;;;;;;4.20;0.95;;;19.30;99.90;;;;;;5028668;28;20305;-76
2022/11/24 12:38:02;;;;;;;4.68;1.00;;;19.20;99.90;;;;;;5034002;28;20197;-75
2022/11/24 12:40:49;;;;;;;6.93;1.13;;;19.20;99.90;;;;;;5032747;28;20224;-75
2022/11/24 12:43:29;;;;;;;4.32;1.10;;;19.20;99.90;;;;;;5041038;28;20189;-76
2022/11/24 12:46:09;;;;;;;6.20;1.17;;;19.30;99.90;;;;;;5029204;28;20209;-74
2022/11/24 12:48:54;;;;;;;9.05;1.15;;;19.30;99.90;;;;;;5038523;28;20233;-79
2022/11/24 12:51:31;;;;;;;5.43;1.10;;;19.20;99.90;;;;;;5038106;28;20628;-78
2022/11/24 12:54:05;;;;;;;6.68;1.17;;;19.30;99.90;;;;;;5025223;28;20562;-82
2022/11/24 12:56:42;;;;;;;3.13;1.00;;;19.30;99.90;;;;;;5037371;28;20191;-85
2022/11/24 12:59:28;;;;;;;6.28;1.10;;;19.30;99.90;;;;;;5041087;28;20193;-76
2022/11/24 13:02:18;;;;;;;4.40;0.93;;;19.30;99.90;;;;;;5040296;28;20599;-78
2022/11/24 13:04:54;;;;;;;5.88;1.13;;;19.40;99.90;;;;;;5031388;28;20195;-83
2022/11/24 13:07:39;;;;;;;5.43;1.00;;;19.40;99.90;;;;;;5028966;28;20293;-78
2022/11/24 13:17:23;;;;;;;5.65;1.05;;;19.20;99.90;;;;;;5039705;28;20699;-75
2022/11/24 13:20:15;;;;;;;5.05;1.00;;;19.20;99.90;;;;;;5041743;28;20225;-76
2022/11/24 13:22:53;;;;;;;5.93;1.17;;;19.20;99.90;;;;;;5040116;28;20209;-76
2022/11/24 13:25:27;;;;;;;5.35;0.93;;;19.30;99.90;;;;;;5041043;28;20573;-76
2022/11/24 13:27:59;;;;;;;5.00;1.00;;;19.30;99.90;;;;;;5032435;28;20230;-81
2022/11/24 13:31:09;;;;;;;6.40;1.13;;;19.30;99.90;;;;;;5020051;28;20197;-75
2022/11/24 13:33:42;;;;;;;4.78;1.15;;;19.30;99.90;;;;;;5032225;28;20194;-75